MLS of Myrtle Beach - click to go to home page
Free Carolina Homes and Interiors magazine offer
Tuesday, June 18, 2019 | 9:11 AM
Currently: 0 F (27.8 C), .9° F
More Weather

Myrtle Beach Air Force Base, SC, United States (KMYR) 33-41N 078-56W 8M
Jun 18, 2019 - 08:56 AM EDT / 2019.06.18 1256 UTC
Wind: from the S (170 degrees) at 7 MPH (6 KT):0
Visibility: 8 mile(s):0
Temperature: 82.0 F (27.8 C)
Dew Point: 75.9 F (24.4 C)
Relative Humidity: 81%
Pressure (altimeter): 30.07 in. Hg (1018 hPa)
ob: KMYR 181256Z 17006KT 8SM 28/24 A3007 RMK AO2 SLP181 T02780244


Close

Quick Search Myrtle Beach MLS

Property Type
City
Price
Bedrooms
Baths

 



Share/Save/Bookmark

Find a doctor

Myrtle Beach, SC : Luxury Properties

Grand Dunes : Myrtle Beach, SCGrande Dunes Luxury Homes : Myrtle Beach, SC
Two magnificent homes currently offer the intriguing option of taking up residence in Grande Dunes, one of the premier places to live along South Carolina’s northeast coast...
Read More

Easy 105.9, Easy 100.7 Myrtle Beach, SC logoContact Us Today
Phone: 843.903.9962 • Fax: 843.903.1797 • Studio: 843.236.4488
WEZV-FM P.O. Box 2830 • Myrtle Beach, SC 29578